BURZIK CATHERINE M, CEO of KCI - Past Performance as of 05/31/20. Total 74 Records. Link to Thomson Financial
Buy(P) /
Sell(S)
P/S date Filed Date Company Symbol Insider Relationship Share Amt. Unit Price Total Proceeds Shares Owned Return(1m) Details
S 2019-04-17 2019-05-30 13:13:09.0 BECTON DICKINSON & CO BDX BURZIK CATHERINE M director 45 $223.04 $10,036.80 10,007 view
P 2019-04-16 2019-05-30 13:13:09.0 BECTON DICKINSON & CO BDX BURZIK CATHERINE M director 30 $247.96 $7,438.80 10,052 view
P 2018-06-22 2019-05-30 13:13:09.0 BECTON DICKINSON & CO BDX BURZIK CATHERINE M director 45 $239.01 $10,755.50 10,022 view
P 2018-04-13 2019-05-30 13:13:09.0 BECTON DICKINSON & CO BDX BURZIK CATHERINE M director 285 $225.89 $64,378.60 9,977 view
P 2008-10-24 2008-10-27 12:46:04.0 KINETIC CONCEPTS INC /TX/ KCI BURZIK CATHERINE M CEO 20,000 $20.10 $402,000.00 151,067 3.48% view
S 2008-04-07 2008-04-09 18:47:51.0 KINETIC CONCEPTS INC /TX/ KCI BURZIK CATHERINE M director officer (President and CEO) 10,000 $50.00 $500,000.00 130,883 23.60% view
S 2008-01-02 2008-01-02 19:09:32.0 KINETIC CONCEPTS INC /TX/ KCI BURZIK CATHERINE M director officer (President and CEO) 10,000 $52.42 $524,200.00 108,800 1.53% view
S 2007-12-28 2008-01-02 19:09:32.0 KINETIC CONCEPTS INC /TX/ KCI BURZIK CATHERINE M director officer (President and CEO) 10,000 $53.82 $538,200.00 108,800 9.44% view
S 2006-08-02 2006-08-04 12:31:04.0 APPLERA CORP ABI BURZIK CATHERINE M officer (Senior Vice President) 91 $32.30 $2,939.30 23,902 3.13% view
S 2006-08-02 2006-08-04 12:31:04.0 APPLERA CORP ABI BURZIK CATHERINE M officer (Senior Vice President) 91 $32.29 $2,938.39 23,994 3.10% view
S 2006-08-02 2006-08-04 12:31:04.0 APPLERA CORP ABI BURZIK CATHERINE M officer (Senior Vice President) 182 $32.31 $5,880.42 23,720 3.16% view
S 2006-08-02 2006-08-04 12:31:04.0 APPLERA CORP ABI BURZIK CATHERINE M officer (Senior Vice President) 182 $32.32 $5,882.24 23,538 3.19% view
S 2006-08-02 2006-08-04 12:31:04.0 APPLERA CORP ABI BURZIK CATHERINE M officer (Senior Vice President) 122 $32.35 $3,946.70 23,416 3.28% view
S 2006-08-02 2006-08-04 12:30:30.0 APPLERA CORP ABI BURZIK CATHERINE M officer (Senior Vice President) 760 $31.93 $24,266.80 29,432 2.00% view
S 2006-08-02 2006-08-04 12:30:30.0 APPLERA CORP ABI BURZIK CATHERINE M officer (Senior Vice President) 656 $31.92 $20,939.50 30,192 1.97% view
S 2006-08-02 2006-08-04 12:30:30.0 APPLERA CORP ABI BURZIK CATHERINE M officer (Senior Vice President) 304 $31.94 $9,709.76 29,128 2.04% view
S 2006-08-02 2006-08-04 12:30:30.0 APPLERA CORP ABI BURZIK CATHERINE M officer (Senior Vice President) 638 $31.95 $20,384.10 28,490 2.07% view
S 2006-08-02 2006-08-04 12:30:30.0 APPLERA CORP ABI BURZIK CATHERINE M officer (Senior Vice President) 182 $31.98 $5,820.36 28,308 2.16% view
S 2006-08-02 2006-08-04 12:30:30.0 APPLERA CORP ABI BURZIK CATHERINE M officer (Senior Vice President) 213 $31.99 $6,813.87 28,094 2.19% view
S 2006-08-02 2006-08-04 12:30:30.0 APPLERA CORP ABI BURZIK CATHERINE M officer (Senior Vice President) 272 $32.00 $8,704.00 27,822 2.22% view
S 2006-08-02 2006-08-04 12:30:30.0 APPLERA CORP ABI BURZIK CATHERINE M officer (Senior Vice President) 91 $32.08 $2,919.28 27,732 2.46% view
S 2006-08-02 2006-08-04 12:30:30.0 APPLERA CORP ABI BURZIK CATHERINE M officer (Senior Vice President) 304 $32.10 $9,758.40 27,428 2.52% view
S 2006-08-02 2006-08-04 12:30:30.0 APPLERA CORP ABI BURZIK CATHERINE M officer (Senior Vice President) 152 $32.11 $4,880.72 27,276 2.55% view
S 2006-08-02 2006-08-04 12:30:30.0 APPLERA CORP ABI BURZIK CATHERINE M officer (Senior Vice President) 182 $32.12 $5,845.84 27,094 2.58% view
S 2006-08-02 2006-08-04 12:30:30.0 APPLERA CORP ABI BURZIK CATHERINE M officer (Senior Vice President) 182 $32.13 $5,847.66 26,912 2.61% view
S 2006-08-02 2006-08-04 12:30:30.0 APPLERA CORP ABI BURZIK CATHERINE M officer (Senior Vice President) 61 $32.14 $1,960.54 26,850 2.64% view
S 2006-08-02 2006-08-04 12:30:30.0 APPLERA CORP ABI BURZIK CATHERINE M officer (Senior Vice President) 61 $32.15 $1,961.15 26,790 2.67% view
S 2006-08-02 2006-08-04 12:30:30.0 APPLERA CORP ABI BURZIK CATHERINE M officer (Senior Vice President) 273 $32.16 $8,779.68 26,516 2.71% view
S 2006-08-02 2006-08-04 12:30:30.0 APPLERA CORP ABI BURZIK CATHERINE M officer (Senior Vice President) 395 $32.17 $12,707.20 26,122 2.74% view
S 2006-08-02 2006-08-04 12:30:30.0 APPLERA CORP ABI BURZIK CATHERINE M officer (Senior Vice President) 152 $32.20 $4,894.40 25,970 2.83% view
S 2006-08-02 2006-08-04 12:30:30.0 APPLERA CORP ABI BURZIK CATHERINE M officer (Senior Vice President) 395 $32.21 $12,723.00 25,574 2.86% view
S 2006-08-02 2006-08-04 12:30:30.0 APPLERA CORP ABI BURZIK CATHERINE M officer (Senior Vice President) 395 $32.23 $12,730.80 25,180 2.92% view
S 2006-08-02 2006-08-04 12:30:30.0 APPLERA CORP ABI BURZIK CATHERINE M officer (Senior Vice President) 639 $32.24 $20,601.40 24,540 2.95% view
S 2006-08-02 2006-08-04 12:30:30.0 APPLERA CORP ABI BURZIK CATHERINE M officer (Senior Vice President) 182 $32.25 $5,869.50 24,358 2.98% view
S 2006-08-02 2006-08-04 12:30:30.0 APPLERA CORP ABI BURZIK CATHERINE M officer (Senior Vice President) 91 $32.26 $2,935.66 24,268 3.01% view
S 2006-08-02 2006-08-04 12:30:30.0 APPLERA CORP ABI BURZIK CATHERINE M officer (Senior Vice President) 122 $32.27 $3,936.94 24,146 3.04% view
S 2006-08-02 2006-08-04 12:30:30.0 APPLERA CORP ABI BURZIK CATHERINE M officer (Senior Vice President) 61 $32.28 $1,969.08 24,084 3.07% view
S 2006-08-02 2006-08-04 12:30:30.0 APPLERA CORP ABI BURZIK CATHERINE M officer (Senior Vice President) 91 $31.91 $2,903.81 30,848 1.94% view
S 2006-08-02 2006-08-04 12:30:30.0 APPLERA CORP ABI BURZIK CATHERINE M officer (Senior Vice President) 61 $31.90 $1,945.90 30,938 1.91% view
S 2006-08-02 2006-08-04 12:30:30.0 APPLERA CORP ABI BURZIK CATHERINE M officer (Senior Vice President) 122 $31.89 $3,890.58 31,000 1.88% view
S 2006-08-02 2006-08-04 12:30:30.0 APPLERA CORP ABI BURZIK CATHERINE M officer (Senior Vice President) 273 $31.86 $8,697.78 31,122 1.79% view
S 2006-08-02 2006-08-04 12:30:30.0 APPLERA CORP ABI BURZIK CATHERINE M officer (Senior Vice President) 122 $31.85 $3,885.70 31,394 1.76% view
S 2006-08-01 2006-08-03 15:18:06.0 APPLERA CORP ABI BURZIK CATHERINE M officer (Senior Vice President) 304 $32.22 $9,794.88 23,630 2.89% view
S 2006-08-01 2006-08-03 15:18:06.0 APPLERA CORP ABI BURZIK CATHERINE M officer (Senior Vice President) 213 $32.26 $6,871.38 23,416 3.01% view
S 2006-08-01 2006-08-03 15:18:06.0 APPLERA CORP ABI BURZIK CATHERINE M officer (Senior Vice President) 304 $32.21 $9,791.84 23,934 2.86% view
S 2006-08-01 2006-08-03 15:17:28.0 APPLERA CORP ABI BURZIK CATHERINE M officer (Senior Vice President) 304 $31.97 $9,718.88 29,098 2.13% view
S 2006-08-01 2006-08-03 15:17:28.0 APPLERA CORP ABI BURZIK CATHERINE M officer (Senior Vice President) 638 $32.20 $20,543.60 24,238 2.83% view
S 2006-08-01 2006-08-03 15:17:28.0 APPLERA CORP ABI BURZIK CATHERINE M officer (Senior Vice President) 486 $32.19 $15,644.30 24,876 2.80% view
S 2006-08-01 2006-08-03 15:17:28.0 APPLERA CORP ABI BURZIK CATHERINE M officer (Senior Vice President) 109 $31.78 $3,464.02 31,408 1.54% view
S 2006-08-01 2006-08-03 15:17:28.0 APPLERA CORP ABI BURZIK CATHERINE M officer (Senior Vice President) 121 $31.85 $3,853.85 31,286 1.76% view
S 2006-08-01 2006-08-03 15:17:28.0 APPLERA CORP ABI BURZIK CATHERINE M officer (Senior Vice President) 122 $31.87 $3,888.14 31,164 1.82% view
S 2006-08-01 2006-08-03 15:17:28.0 APPLERA CORP ABI BURZIK CATHERINE M officer (Senior Vice President) 121 $31.88 $3,857.48 31,044 1.85% view
S 2006-08-01 2006-08-03 15:17:28.0 APPLERA CORP ABI BURZIK CATHERINE M officer (Senior Vice President) 334 $31.89 $10,651.30 30,710 1.88% view
S 2006-08-01 2006-08-03 15:17:28.0 APPLERA CORP ABI BURZIK CATHERINE M officer (Senior Vice President) 213 $31.90 $6,794.70 30,496 1.91% view
S 2006-08-01 2006-08-03 15:17:28.0 APPLERA CORP ABI BURZIK CATHERINE M officer (Senior Vice President) 91 $31.91 $2,903.81 30,406 1.94% view
S 2006-08-01 2006-08-03 15:17:28.0 APPLERA CORP ABI BURZIK CATHERINE M officer (Senior Vice President) 213 $31.92 $6,798.96 30,192 1.97% view
S 2006-08-01 2006-08-03 15:17:28.0 APPLERA CORP ABI BURZIK CATHERINE M officer (Senior Vice President) 243 $31.93 $7,758.99 29,950 2.00% view
S 2006-08-01 2006-08-03 15:17:28.0 APPLERA CORP ABI BURZIK CATHERINE M officer (Senior Vice President) 213 $31.94 $6,803.22 29,736 2.04% view
S 2006-08-01 2006-08-03 15:17:28.0 APPLERA CORP ABI BURZIK CATHERINE M officer (Senior Vice President) 182 $31.95 $5,814.90 29,554 2.07% view
S 2006-08-01 2006-08-03 15:17:28.0 APPLERA CORP ABI BURZIK CATHERINE M officer (Senior Vice President) 152 $31.96 $4,857.92 29,402 2.10% view
S 2006-08-01 2006-08-03 15:17:28.0 APPLERA CORP ABI BURZIK CATHERINE M officer (Senior Vice President) 577 $32.18 $18,567.90 25,362 2.77% view
S 2006-08-01 2006-08-03 15:17:28.0 APPLERA CORP ABI BURZIK CATHERINE M officer (Senior Vice President) 61 $31.98 $1,950.78 29,038 2.16% view
S 2006-08-01 2006-08-03 15:17:28.0 APPLERA CORP ABI BURZIK CATHERINE M officer (Senior Vice President) 122 $31.99 $3,902.78 28,916 2.19% view
S 2006-08-01 2006-08-03 15:17:28.0 APPLERA CORP ABI BURZIK CATHERINE M officer (Senior Vice President) 365 $32.00 $11,680.00 28,550 2.22% view
S 2006-08-01 2006-08-03 15:17:28.0 APPLERA CORP ABI BURZIK CATHERINE M officer (Senior Vice President) 213 $32.03 $6,822.39 28,338 2.31% view
S 2006-08-01 2006-08-03 15:17:28.0 APPLERA CORP ABI BURZIK CATHERINE M officer (Senior Vice President) 365 $32.05 $11,698.20 27,972 2.37% view
S 2006-08-01 2006-08-03 15:17:28.0 APPLERA CORP ABI BURZIK CATHERINE M officer (Senior Vice President) 91 $32.07 $2,918.37 27,882 2.43% view
S 2006-08-01 2006-08-03 15:17:28.0 APPLERA CORP ABI BURZIK CATHERINE M officer (Senior Vice President) 91 $32.09 $2,920.19 27,790 2.49% view
S 2006-08-01 2006-08-03 15:17:28.0 APPLERA CORP ABI BURZIK CATHERINE M officer (Senior Vice President) 91 $32.10 $2,921.10 27,700 2.52% view
S 2006-08-01 2006-08-03 15:17:28.0 APPLERA CORP ABI BURZIK CATHERINE M officer (Senior Vice President) 334 $32.11 $10,724.70 27,366 2.55% view
S 2006-08-01 2006-08-03 15:17:28.0 APPLERA CORP ABI BURZIK CATHERINE M officer (Senior Vice President) 243 $32.12 $7,805.16 27,122 2.58% view
S 2006-08-01 2006-08-03 15:17:28.0 APPLERA CORP ABI BURZIK CATHERINE M officer (Senior Vice President) 456 $32.13 $14,651.30 26,666 2.61% view
S 2006-08-01 2006-08-03 15:17:28.0 APPLERA CORP ABI BURZIK CATHERINE M officer (Senior Vice President) 515 $32.14 $16,552.10 26,152 2.64% view
S 2006-08-01 2006-08-03 15:17:28.0 APPLERA CORP ABI BURZIK CATHERINE M officer (Senior Vice President) 213 $32.17 $6,852.21 25,938 2.74% view
* Filed by insider as open market transaction, but marked as private transaction by insidercow's proprietary method